Llanfyllin, United Kingdom
Current Conditions -  °F | °C
As of 7:50 AM on Saturday 22 Nov 2014 (Local Time) from EGOS Reporting Station
Haze Haze  
Wind Chill: 52°   Ceiling: 7000
Heat Index: 52°   Visibility: 2.6mi
Dew Point: 52°   Wind: 6mph
Humidity: 100%   Direction: 170°S
Pressure: 29.77"   Gusts: NA
Location:  52.77°N, 3.27°W
Report Text: EGOS 220750Z AUTO 17005KT 4200 BR BKN070/// 11/11 Q1008
Loading
Personal Weather Stations






























Interactive Weather Map New forecast layout! Learn more

10-Day Weather Forecast

Advertisements
Track Severe Weather on mobile